createdAt,value
2022-10-15T00:02:54.057Z,99835.34
2022-10-15T00:07:57.515Z,99836.38
2022-10-15T00:18:05.882Z,99842.41
2022-10-15T00:23:08.957Z,99833.81
2022-10-15T00:28:12.280Z,99840.78
2022-10-15T00:33:17.006Z,99840.84
2022-10-15T00:38:20.289Z,99842.75
2022-10-15T00:43:41.627Z,99841.63
2022-10-15T00:48:49.884Z,99839.75
2022-10-15T00:53:53.917Z,99843.34
2022-10-15T00:58:58.458Z,99848.56
2022-10-15T01:04:05.747Z,99846.94
2022-10-15T01:09:09.402Z,99853.88
2022-10-15T01:14:27.378Z,99848.66
2022-10-15T01:20:02.967Z,99851.16
2022-10-15T01:25:24.521Z,99851.22
2022-10-15T01:30:36.960Z,99841.72
2022-10-15T01:35:48.006Z,99849.41
2022-10-15T01:40:56.706Z,99847.59
2022-10-15T01:46:07.014Z,99847.72
2022-10-15T01:51:13.527Z,99858.34
2022-10-15T01:56:21.426Z,99861.03
2022-10-15T02:01:26.484Z,99860.97
2022-10-15T02:06:36.241Z,99863.44
2022-10-15T02:11:47.103Z,99868.44
2022-10-15T02:16:59.565Z,99862.28
2022-10-15T02:22:07.911Z,99873.50
2022-10-15T02:27:14.409Z,99876.91
2022-10-15T02:32:21.969Z,99874.28
2022-10-15T02:37:28.929Z,99878.88
2022-10-15T02:42:32.517Z,99880.56
2022-10-15T02:47:37.238Z,99873.75
2022-10-15T02:52:40.582Z,99882.31
2022-10-15T02:57:43.887Z,99885.03
2022-10-15T03:02:48.674Z,99890.34
2022-10-15T03:07:51.894Z,99890.38
2022-10-15T03:12:55.229Z,99889.41
2022-10-15T03:18:00.018Z,99896.19
2022-10-15T03:23:03.283Z,99889.97
2022-10-15T03:28:06.668Z,99889.91
2022-10-15T03:33:12.144Z,99887.13
2022-10-15T03:38:15.592Z,99892.34
2022-10-15T03:43:18.974Z,99882.81
2022-10-15T03:48:23.979Z,99904.56
2022-10-15T03:53:27.389Z,99899.25
2022-10-15T03:58:30.726Z,99898.44
2022-10-15T04:03:35.583Z,99893.28
2022-10-15T04:08:38.688Z,99904.50
2022-10-15T04:13:42.060Z,99908.94
2022-10-15T04:18:46.745Z,99905.38
2022-10-15T04:23:50.084Z,99915.88
2022-10-15T04:28:53.512Z,99907.38
2022-10-15T04:33:58.366Z,99911.69
2022-10-15T04:39:02.152Z,99911.88
2022-10-15T04:44:05.857Z,99917.06
2022-10-15T04:49:10.628Z,99912.66
2022-10-15T04:54:14.068Z,99905.59
2022-10-15T04:59:17.392Z,99916.88
2022-10-15T05:04:22.145Z,99914.38
2022-10-15T05:09:25.570Z,99918.88
2022-10-15T05:14:28.890Z,99918.16
2022-10-15T05:19:33.607Z,99915.44
2022-10-15T05:24:37.035Z,99921.47
2022-10-15T05:29:40.384Z,99919.88
2022-10-15T05:34:45.064Z,99917.25
2022-10-15T05:39:49.060Z,99911.97
2022-10-15T05:44:52.376Z,99926.69
2022-10-15T05:49:57.352Z,99931.31
2022-10-15T05:55:00.458Z,99936.78
2022-10-15T06:00:04.031Z,99935.13
2022-10-15T06:05:09.167Z,99935.34
2022-10-15T06:10:12.649Z,99943.31
2022-10-15T06:15:16.964Z,99940.75
2022-10-15T06:20:22.441Z,99938.47
2022-10-15T06:25:25.890Z,99930.47
2022-10-15T06:30:30.106Z,99940.44
2022-10-15T06:35:35.857Z,99945.13
2022-10-15T06:40:39.604Z,99942.78
2022-10-15T06:45:43.253Z,99949.00
2022-10-15T06:50:48.055Z,99948.91
2022-10-15T06:55:51.387Z,99949.59
2022-10-15T07:00:54.866Z,99960.06
2022-10-15T07:06:03.273Z,99962.03
2022-10-15T07:11:08.853Z,99965.59
2022-10-15T07:16:14.103Z,99963.78
2022-10-15T07:21:18.896Z,99954.22
2022-10-15T07:26:21.941Z,99962.69
2022-10-15T07:31:25.606Z,99979.41
2022-10-15T07:36:30.535Z,99977.69
2022-10-15T07:41:33.575Z,99985.53
2022-10-15T07:46:36.992Z,99990.81
2022-10-15T07:51:41.703Z,99988.44
2022-10-15T07:56:45.041Z,99988.75
2022-10-15T08:01:50.623Z,99991.38
2022-10-15T08:06:55.862Z,99988.22
2022-10-15T08:11:59.280Z,99996.16
2022-10-15T08:17:03.436Z,99988.28
2022-10-15T08:22:08.194Z,99991.84
2022-10-15T08:27:11.287Z,99994.41
2022-10-15T08:32:14.738Z,99991.56
2022-10-15T08:37:19.625Z,99994.94
2022-10-15T08:42:26.616Z,99984.63
2022-10-15T08:47:35.872Z,99983.94
2022-10-15T08:52:44.364Z,99986.53
2022-10-15T08:57:54.473Z,99949.31
2022-10-15T09:03:04.235Z,99991.22
2022-10-15T09:08:21.861Z,99972.25
2022-10-15T09:13:29.209Z,99971.34
2022-10-15T09:18:35.145Z,99977.47
2022-10-15T09:23:41.544Z,99978.41
2022-10-15T09:28:53.469Z,99982.81
2022-10-15T09:34:03.143Z,99976.88
2022-10-15T09:39:32.065Z,99980.41
2022-10-15T09:44:46.359Z,99969.97
2022-10-15T09:49:49.817Z,99986.50
2022-10-15T09:55:04.461Z,99988.13
2022-10-15T10:00:11.861Z,99983.81
2022-10-15T10:05:29.292Z,99983.81
2022-10-15T10:10:35.518Z,99985.56
2022-10-15T10:15:43.249Z,99979.50
2022-10-15T10:20:54.958Z,99973.47
2022-10-15T10:26:00.634Z,99983.78
2022-10-15T10:31:07.449Z,99982.06
2022-10-15T10:36:22.481Z,99980.34
2022-10-15T10:41:51.057Z,99983.75
2022-10-15T10:47:13.463Z,99982.03
2022-10-15T10:52:26.698Z,99983.75
2022-10-15T10:57:41.906Z,99962.84
2022-10-15T11:02:45.297Z,99977.56
2022-10-15T11:07:56.651Z,99973.13
2022-10-15T11:13:13.955Z,99969.59
2022-10-15T11:18:38.598Z,99976.63
2022-10-15T11:23:56.652Z,99972.91
2022-10-15T11:29:12.858Z,99976.09
2022-10-15T11:34:31.105Z,99971.56
2022-10-15T11:39:49.723Z,99981.56
2022-10-15T11:45:26.180Z,99961.09
2022-10-15T11:50:34.242Z,99977.59
2022-10-15T11:55:42.908Z,99981.94
2022-10-15T12:00:52.320Z,99967.06
2022-10-15T12:06:02.047Z,99972.44
2022-10-15T12:11:16.915Z,99972.47
2022-10-15T12:16:26.914Z,99975.97
2022-10-15T12:21:39.669Z,99968.13
2022-10-15T12:26:43.227Z,99968.97
2022-10-15T12:31:55.967Z,99958.53
2022-10-15T12:37:04.950Z,99962.03
2022-10-15T12:42:23.056Z,99962.88
2022-10-15T12:47:49.261Z,99948.09
2022-10-15T12:52:58.726Z,99961.22
2022-10-15T12:58:08.075Z,99965.59
2022-10-15T13:03:28.810Z,99969.94
2022-10-15T13:08:32.790Z,99959.53
2022-10-15T13:13:36.732Z,99968.22
2022-10-15T13:18:44.361Z,99969.97
2022-10-15T13:23:48.878Z,99965.59
2022-10-15T13:28:55.211Z,99976.84
2022-10-15T13:34:05.637Z,99966.41
2022-10-15T13:39:24.464Z,99971.56
2022-10-15T13:44:28.413Z,99962.81
2022-10-15T13:49:33.527Z,99960.16
2022-10-15T13:54:37.656Z,99973.09
2022-10-15T13:59:46.940Z,99963.50
2022-10-15T14:04:51.696Z,99975.56
2022-10-15T14:09:55.660Z,99985.84
2022-10-15T14:15:38.156Z,99977.88
2022-10-15T14:20:47.704Z,99980.38
2022-10-15T14:25:59.394Z,99985.38
2022-10-15T14:31:04.218Z,99991.25
2022-10-15T14:36:14.229Z,99989.38
2022-10-15T14:41:26.618Z,99997.91
2022-10-15T14:46:41.048Z,100000.34
2022-10-15T14:51:47.111Z,100005.38
2022-10-15T14:56:52.798Z,100009.56
2022-10-15T15:02:02.581Z,100006.72
2022-10-15T15:07:21.508Z,100014.31
2022-10-15T15:12:27.987Z,100013.97
2022-10-15T15:17:32.779Z,100019.78
2022-10-15T15:22:38.470Z,100026.47
2022-10-15T15:27:42.711Z,100028.00
2022-10-15T15:32:46.173Z,100020.09
2022-10-15T15:37:51.567Z,100019.88
2022-10-15T15:42:56.639Z,100024.03
2022-10-15T15:48:04.218Z,100025.53
2022-10-15T15:53:10.078Z,100019.53
2022-10-15T15:58:14.099Z,100025.47
2022-10-15T16:03:17.522Z,100021.91
2022-10-15T16:08:22.998Z,100017.44
2022-10-15T16:13:26.438Z,100019.03
2022-10-15T16:18:30.733Z,100028.44
2022-10-15T16:23:35.526Z,100032.66
2022-10-15T16:28:39.592Z,100036.00
2022-10-15T16:33:43.170Z,100038.47
2022-10-15T16:38:49.622Z,100048.66
2022-10-15T16:43:52.938Z,100055.56
2022-10-15T16:48:58.642Z,100051.22
2022-10-15T16:54:03.526Z,100046.78
2022-10-15T16:59:07.342Z,100057.81
2022-10-15T17:04:10.939Z,100049.78
2022-10-15T17:09:16.811Z,100056.59
2022-10-15T17:14:20.750Z,100047.97
2022-10-15T17:19:30.404Z,100066.91
2022-10-15T17:24:38.200Z,100060.78
2022-10-15T17:29:42.777Z,100070.28
2022-10-15T17:34:46.188Z,100067.66
2022-10-15T17:39:52.791Z,100080.47
2022-10-15T17:44:56.167Z,100087.28
2022-10-15T17:50:00.366Z,100095.88
2022-10-15T17:55:05.655Z,100079.47
2022-10-15T18:00:12.393Z,100088.09
2022-10-15T18:10:27.324Z,100100.72
2022-10-15T18:15:35.187Z,100101.41
2022-10-15T18:20:43.210Z,100104.56
2022-10-15T18:25:49.052Z,100089.84
2022-10-15T18:30:53.204Z,100104.41
2022-10-15T18:35:57.320Z,100114.47
2022-10-15T18:41:02.768Z,100109.94
2022-10-15T18:46:07.107Z,100109.00
2022-10-15T18:51:11.254Z,100120.16
2022-10-15T18:56:15.968Z,100117.66
2022-10-15T19:01:27.477Z,100125.34
2022-10-15T19:06:35.162Z,100127.97
2022-10-15T19:11:41.899Z,100127.31
2022-10-15T19:16:46.529Z,100132.47
2022-10-15T19:21:51.586Z,100135.91
2022-10-15T19:26:57.310Z,100147.09
2022-10-15T19:32:04.495Z,100146.00
2022-10-15T19:37:08.578Z,100145.69
2022-10-15T19:42:13.340Z,100152.41
2022-10-15T19:47:20.449Z,100163.50
2022-10-15T19:52:23.988Z,100155.41
2022-10-15T19:57:29.459Z,100165.63
2022-10-15T20:02:34.396Z,100164.63
2022-10-15T20:07:38.179Z,100165.28
2022-10-15T20:12:42.912Z,100173.63
2022-10-15T20:17:47.727Z,100170.81
2022-10-15T20:22:51.037Z,100171.59
2022-10-15T20:27:56.516Z,100180.09
2022-10-15T20:33:00.217Z,100172.28
2022-10-15T20:38:05.347Z,100184.25
2022-10-15T20:43:10.166Z,100190.28
2022-10-15T20:48:21.577Z,100188.38
2022-10-15T20:53:26.085Z,100193.41
2022-10-15T20:58:32.129Z,100200.00
2022-10-15T21:03:35.561Z,100188.53
2022-10-15T21:08:39.676Z,100200.72
2022-10-15T21:13:44.695Z,100203.09
2022-10-15T21:18:48.491Z,100202.25
2022-10-15T21:23:52.069Z,100206.34
2022-10-15T21:28:58.736Z,100215.94
2022-10-15T21:34:02.134Z,100215.03
2022-10-15T21:39:07.872Z,100216.72
2022-10-15T21:44:12.707Z,100224.38
2022-10-15T21:49:16.962Z,100218.03
2022-10-15T21:54:20.289Z,100222.47
2022-10-15T21:59:25.935Z,100215.66
2022-10-15T22:04:29.435Z,100224.19
2022-10-15T22:09:33.492Z,100224.03
2022-10-15T22:14:38.286Z,100216.22
2022-10-15T22:19:42.397Z,100214.22
2022-10-15T22:24:45.717Z,100224.81
2022-10-15T22:29:51.147Z,100228.16
2022-10-15T22:34:54.504Z,100233.59
2022-10-15T22:39:58.608Z,100244.97
2022-10-15T22:45:03.469Z,100246.94
2022-10-15T22:50:07.712Z,100248.06
2022-10-15T22:55:11.210Z,100245.22
2022-10-15T23:00:17.763Z,100257.88
2022-10-15T23:05:21.868Z,100255.97
2022-10-15T23:10:25.982Z,100259.13
2022-10-15T23:15:31.395Z,100255.47
2022-10-15T23:20:38.199Z,100256.13
2022-10-15T23:25:42.228Z,100257.66
2022-10-15T23:30:47.809Z,100262.97
2022-10-15T23:35:59.605Z,100267.34
2022-10-15T23:41:05.437Z,100269.13
2022-10-15T23:46:11.222Z,100265.66
2022-10-15T23:51:16.309Z,100270.50
2022-10-15T23:56:19.925Z,100274.59
